Etusivu
METAR-TAF:

METAR-TAF

Lentoasemat :

Lugano, Sveitsi

Leveyspiiri: 46-00N, Pituuspiiri: 008-58E, korkeus merenpinnasta: 273 m

Tämänhetkinen sää

Tämä raportti tehtiin 5 minuuttia sitten, kello 14.20 UTC
tyyntä
Lämpötila 17°C
Kosteus 77%
Ilmanpaine 1017 hPa
Näkyvyys 10 km tai enemmän
Muutamia pilviä 3500 ft:n korkeudessa
Pilvistä 7000 ft:n korkeudessa

METAR: LSZA 181420Z 00000KT 9999 FEW035 OVC070 17/13 Q1017 NOSIG

Aika: 16:25 (14:25 UTC)

Sääennuste

Tämä raportti tehtiin 3 tuntia ja 0 minuuttia sitten, kello 11.25 UTC
Ennuste voimassa 18. päivästä klo 12 UTC - 18. päivään klo 21 UTC
Tuuli 3 kn eri suunnista
Näkyvyys 10 km tai enemmän
Muutamia pilviä 3000 ft:n korkeudessa
Hajonneita pilviä 7000 ft:n korkeudessa
Ajoittain
18. päivästä klo 16 UTC - 18. päivään klo 18 UTC
Hajanaisia pilviä 4000 ft:n korkeudessa, Kasvava cumulus-pilvi.
vesikuuroja

TAF: LSZA 181125Z 1812/1821 VRB03KT 9999 FEW030 BKN070 TEMPO 1816/1818 SHRA SCT040TCU

Säähavainnot ja -ennusteet yli 4000 lentoasemalta (METAR- ja TAF-raportit).

Käytössä olevat sääasemat on merkitty karttaan keltaisilla ja punaisilla pisteillä.

Aseta hiiri pisteen päälle nähdäksesi sääaseman nimen.

Klikkaa sitten nähdäksesi säähavainnot ja -ennusteet.

Kartan vaihtaminen: klikkaa mustalla rastilla varustettuja vihreitä pisteitä, niin voit zoomata sisään; viivalla varustettua vihreää pistettä, niin voit zoomata ulos tai vihreitä nuolia, niin pääset viereisille kartoille.


METAR-TAF: